Time;durP1;ratioP1;P1;durP2;ratioP2;P2;SDS_P1;SDS_P2;PMS_P1;PMS_P2;Temp;Humidity;BMP_temperature;BMP_pressure;BME280_temperature;BME280_humidity;BME280_pressure;Samples;Min_cycle;Max_cycle;Signal;HPM_P1;HPM_P2
2021/04/13 00:01:18;;;;;;;1.35;0.75;;;;;6.90;102911.00;;;;5069250;28;20594;-76
2021/04/13 00:03:47;;;;;;;0.93;0.50;;;;;6.90;102915.00;;;;5086766;28;20198;-76
2021/04/13 00:06:17;;;;;;;1.98;0.95;;;;;6.90;102919.00;;;;5085199;28;20209;-76
2021/04/13 00:08:48;;;;;;;1.20;0.80;;;;;6.90;102920.00;;;;5087549;28;20194;-76
2021/04/13 00:11:16;;;;;;;1.80;0.70;;;;;6.90;102923.00;;;;5088326;28;20201;-76
2021/04/13 00:13:44;;;;;;;1.58;0.85;;;;;6.90;102921.00;;;;5087597;28;20205;-76
2021/04/13 00:16:14;;;;;;;4.60;0.82;;;;;6.90;102921.00;;;;5080198;28;20668;-76
2021/04/13 00:18:43;;;;;;;1.45;0.85;;;;;6.90;102923.00;;;;5081171;28;20191;-76
2021/04/13 00:21:14;;;;;;;1.67;0.77;;;;;6.80;102921.00;;;;5083377;28;20264;-76
2021/04/13 00:23:42;;;;;;;2.17;0.68;;;;;6.80;102916.00;;;;5082397;28;20186;-76
2021/04/13 00:26:18;;;;;;;0.95;0.50;;;;;6.80;102920.00;;;;5082899;28;20209;-76
2021/04/13 00:28:47;;;;;;;0.82;0.40;;;;;6.80;102912.00;;;;5081414;28;20206;-76
2021/04/13 00:31:20;;;;;;;1.10;0.80;;;;;6.70;102923.00;;;;5081370;28;20638;-76
2021/04/13 00:33:55;;;;;;;1.60;0.85;;;;;6.80;102916.00;;;;5085308;28;20187;-76
2021/04/13 00:36:23;;;;;;;1.48;0.80;;;;;6.70;102915.00;;;;5087432;28;20406;-77
2021/04/13 00:38:52;;;;;;;2.42;0.88;;;;;6.70;102917.00;;;;5087710;28;20198;-76
2021/04/13 00:41:23;;;;;;;2.53;1.13;;;;;6.70;102916.00;;;;5085408;28;20214;-76
2021/04/13 00:43:53;;;;;;;2.30;1.25;;;;;6.70;102912.00;;;;5083170;28;20206;-76
2021/04/13 00:46:23;;;;;;;0.70;0.60;;;;;6.70;102915.00;;;;5091516;28;20191;-76
2021/04/13 00:48:51;;;;;;;2.28;0.70;;;;;6.70;102914.00;;;;5072128;28;20198;-76
2021/04/13 00:51:25;;;;;;;2.53;1.30;;;;;6.60;102919.00;;;;5071523;28;20203;-76
2021/04/13 00:53:56;;;;;;;1.75;0.90;;;;;6.60;102921.00;;;;5087879;28;20613;-76
2021/04/13 00:56:24;;;;;;;2.70;0.98;;;;;6.60;102916.00;;;;5091502;28;20194;-76
2021/04/13 00:59:02;;;;;;;2.92;1.40;;;;;6.60;102913.00;;;;5091207;28;20190;-76
2021/04/13 01:01:32;;;;;;;1.10;0.90;;;;;6.60;102910.00;;;;5070909;28;20226;-76
2021/04/13 01:04:01;;;;;;;2.05;0.80;;;;;6.60;102921.00;;;;5074706;28;20191;-76
2021/04/13 01:06:30;;;;;;;2.75;0.70;;;;;6.60;102914.00;;;;5077637;28;20190;-76
2021/04/13 01:09:08;;;;;;;2.85;0.95;;;;;6.50;102919.00;;;;5081833;28;20216;-76
2021/04/13 01:11:41;;;;;;;1.35;0.88;;;;;6.50;102918.00;;;;5089907;28;20213;-75
2021/04/13 01:14:10;;;;;;;1.17;0.77;;;;;6.50;102918.00;;;;5090142;28;20194;-76
2021/04/13 01:16:42;;;;;;;1.02;0.80;;;;;6.50;102921.00;;;;5089497;28;21069;-76
2021/04/13 01:19:15;;;;;;;0.63;0.52;;;;;6.50;102928.00;;;;5089611;28;20222;-76
2021/04/13 01:21:54;;;;;;;1.55;0.65;;;;;6.40;102922.00;;;;5091354;28;20214;-76
2021/04/13 01:24:26;;;;;;;1.70;0.77;;;;;6.40;102921.00;;;;5085378;28;20195;-75
2021/04/13 01:26:55;;;;;;;0.80;0.52;;;;;6.40;102919.00;;;;5086532;28;20754;-76
2021/04/13 01:29:26;;;;;;;1.38;0.80;;;;;6.40;102916.00;;;;5085480;28;20190;-76
2021/04/13 01:31:57;;;;;;;1.55;0.60;;;;;6.40;102916.00;;;;5081661;28;20191;-76
2021/04/13 01:34:29;;;;;;;2.78;0.77;;;;;6.40;102922.00;;;;5091028;28;20194;-76
2021/04/13 01:37:16;;;;;;;2.38;0.60;;;;;6.30;102910.00;;;;5089980;28;20270;-76
2021/04/13 01:39:53;;;;;;;1.17;0.68;;;;;6.40;102915.00;;;;5091316;28;20672;-76
2021/04/13 01:42:23;;;;;;;1.67;0.57;;;;;6.30;102919.00;;;;5090956;28;20232;-76
2021/04/13 01:44:52;;;;;;;1.35;0.70;;;;;6.30;102925.00;;;;5089224;28;20194;-76
2021/04/13 01:47:22;;;;;;;0.88;0.50;;;;;6.30;102926.00;;;;5085597;28;20197;-76
2021/04/13 01:49:51;;;;;;;3.00;0.90;;;;;6.30;102921.00;;;;5080078;28;20246;-76
2021/04/13 01:52:27;;;;;;;1.52;0.63;;;;;6.30;102919.00;;;;5088653;28;20289;-76
2021/04/13 01:54:57;;;;;;;1.98;0.80;;;;;6.30;102925.00;;;;5085308;28;20303;-75
2021/04/13 01:57:35;;;;;;;0.93;0.70;;;;;6.20;102918.00;;;;5086351;28;20194;-76
2021/04/13 02:00:12;;;;;;;1.10;0.85;;;;;6.20;102917.00;;;;5088708;28;20186;-76
2021/04/13 02:02:45;;;;;;;1.15;0.50;;;;;6.20;102924.00;;;;5076196;28;21035;-76
2021/04/13 02:05:15;;;;;;;1.20;0.60;;;;;6.20;102920.00;;;;5089338;28;20198;-76
2021/04/13 02:07:53;;;;;;;2.08;0.77;;;;;6.20;102923.00;;;;5089052;28;20201;-75
2021/04/13 02:10:26;;;;;;;1.00;0.60;;;;;6.20;102921.00;;;;5090178;28;20578;-76
2021/04/13 02:12:59;;;;;;;1.95;0.77;;;;;6.20;102920.00;;;;5079246;28;20674;-76
2021/04/13 02:15:34;;;;;;;2.13;0.68;;;;;6.10;102922.00;;;;5090148;28;20248;-76
2021/04/13 02:18:04;;;;;;;1.10;0.50;;;;;6.20;102921.00;;;;5089497;28;20217;-76
2021/04/13 02:20:33;;;;;;;2.53;0.70;;;;;6.10;102928.00;;;;5084757;28;20202;-76
2021/04/13 02:23:03;;;;;;;2.00;0.50;;;;;6.10;102927.00;;;;5090212;28;20594;-76
2021/04/13 02:25:32;;;;;;;1.02;0.50;;;;;6.10;102926.00;;;;5088527;28;20190;-75
2021/04/13 02:28:01;;;;;;;1.30;0.57;;;;;6.10;102930.00;;;;5087071;28;20217;-75
2021/04/13 02:30:31;;;;;;;1.65;0.55;;;;;6.10;102928.00;;;;5089766;28;20308;-76
2021/04/13 02:33:00;;;;;;;2.25;0.70;;;;;6.10;102927.00;;;;5081925;28;20191;-76
2021/04/13 02:35:29;;;;;;;1.00;0.68;;;;;6.00;102929.00;;;;5083232;28;20202;-75
2021/04/13 02:37:59;;;;;;;2.97;0.38;;;;;6.00;102932.00;;;;5077877;28;20828;-75
2021/04/13 02:40:30;;;;;;;3.97;0.47;;;;;6.00;102936.00;;;;5088612;28;20572;-76
2021/04/13 02:43:08;;;;;;;1.10;0.70;;;;;6.00;102933.00;;;;5090235;28;20194;-76
2021/04/13 02:45:39;;;;;;;1.15;0.68;;;;;6.00;102937.00;;;;5074649;28;20210;-76
2021/04/13 02:48:10;;;;;;;1.10;0.40;;;;;6.00;102939.00;;;;5088626;28;20190;-76
2021/04/13 02:50:40;;;;;;;1.75;0.63;;;;;6.00;102947.00;;;;5087279;28;20588;-76
2021/04/13 02:53:09;;;;;;;1.73;0.63;;;;;6.00;102947.00;;;;5088538;28;20209;-76
2021/04/13 02:55:38;;;;;;;1.17;0.40;;;;;6.00;102940.00;;;;5078083;28;20214;-76
2021/04/13 02:58:10;;;;;;;0.85;0.75;;;;;5.90;102944.00;;;;5089636;28;20582;-76
2021/04/13 03:00:42;;;;;;;1.83;0.85;;;;;6.00;102942.00;;;;5086832;28;20570;-76
2021/04/13 03:03:12;;;;;;;0.90;0.57;;;;;6.00;102934.00;;;;5069524;28;20198;-75
2021/04/13 03:05:41;;;;;;;1.27;0.77;;;;;5.90;102940.00;;;;5088182;28;20198;-75
2021/04/13 03:08:11;;;;;;;0.77;0.45;;;;;6.00;102937.00;;;;5087266;28;20194;-76
2021/04/13 03:10:41;;;;;;;2.67;0.70;;;;;5.90;102940.00;;;;5089063;28;20205;-75
2021/04/13 03:13:13;;;;;;;1.63;1.00;;;;;5.90;102941.00;;;;5078234;28;20664;-76
2021/04/13 03:15:42;;;;;;;2.58;1.05;;;;;5.90;102943.00;;;;5078586;28;20694;-75
2021/04/13 03:18:16;;;;;;;2.92;1.00;;;;;5.90;102946.00;;;;5077292;28;20197;-75
2021/04/13 03:20:46;;;;;;;1.52;0.82;;;;;5.90;102944.00;;;;5088967;28;20194;-75
2021/04/13 03:23:14;;;;;;;2.13;0.75;;;;;5.90;102936.00;;;;5087732;28;20667;-75
2021/04/13 03:25:45;;;;;;;2.92;0.90;;;;;5.90;102941.00;;;;5083177;28;20195;-75
2021/04/13 03:28:14;;;;;;;4.35;0.75;;;;;5.90;102942.00;;;;5087720;28;20201;-75
2021/04/13 03:30:42;;;;;;;0.70;0.50;;;;;5.90;102944.00;;;;5069004;28;20540;-75
2021/04/13 03:33:13;;;;;;;0.95;0.77;;;;;5.80;102943.00;;;;5080551;28;20194;-75
2021/04/13 03:35:41;;;;;;;1.08;0.55;;;;;5.90;102944.00;;;;5086342;28;20209;-75
2021/04/13 03:38:12;;;;;;;3.95;0.90;;;;;5.80;102940.00;;;;5087781;28;20191;-75
2021/04/13 03:40:44;;;;;;;1.20;0.50;;;;;5.80;102947.00;;;;5081617;28;20195;-76
2021/04/13 03:43:14;;;;;;;1.40;0.75;;;;;5.80;102940.00;;;;5078856;28;20698;-75
2021/04/13 03:45:43;;;;;;;1.38;0.80;;;;;5.80;102942.00;;;;5087838;28;20664;-76
2021/04/13 03:48:15;;;;;;;1.38;0.80;;;;;5.80;102943.00;;;;5088566;28;20230;-75
2021/04/13 03:50:42;;;;;;;1.33;0.57;;;;;5.80;102939.00;;;;5086929;28;20267;-75
2021/04/13 03:53:11;;;;;;;1.20;0.75;;;;;5.80;102947.00;;;;5083844;28;20190;-75
2021/04/13 03:55:39;;;;;;;1.73;0.98;;;;;5.80;102948.00;;;;5078071;28;20206;-75
2021/04/13 03:58:18;;;;;;;1.67;0.77;;;;;5.70;102943.00;;;;5068391;28;20194;-76
2021/04/13 04:00:45;;;;;;;1.55;0.77;;;;;5.80;102946.00;;;;5080120;28;20194;-75
2021/04/13 04:03:12;;;;;;;10.23;0.85;;;;;5.80;102946.00;;;;5079623;28;20206;-75
2021/04/13 04:05:47;;;;;;;1.40;0.90;;;;;5.70;102943.00;;;;5081214;28;20191;-75
2021/04/13 04:08:31;;;;;;;3.03;1.13;;;;;5.70;102945.00;;;;5087874;28;20672;-76
2021/04/13 04:10:59;;;;;;;0.95;0.70;;;;;5.80;102948.00;;;;5088391;28;20675;-76
2021/04/13 04:13:31;;;;;;;1.67;0.80;;;;;5.70;102953.00;;;;5088188;28;20702;-76
2021/04/13 04:16:08;;;;;;;2.58;0.75;;;;;5.70;102954.00;;;;5084234;28;20595;-75
2021/04/13 04:18:38;;;;;;;2.22;0.90;;;;;5.70;102951.00;;;;5077759;28;20289;-75
2021/04/13 04:21:34;;;;;;;2.92;0.73;;;;;5.60;102962.00;;;;5073800;28;20218;-76
2021/04/13 04:24:04;;;;;;;1.52;0.80;;;;;5.70;102967.00;;;;5087620;28;20205;-76
2021/04/13 04:26:36;;;;;;;1.38;0.88;;;;;5.70;102960.00;;;;5085361;28;20198;-76
2021/04/13 04:29:33;;;;;;;4.88;1.30;;;;;5.60;102963.00;;;;5087888;28;20202;-76
2021/04/13 04:32:15;;;;;;;1.02;0.65;;;;;5.60;102964.00;;;;5088099;28;20190;-76
2021/04/13 04:34:53;;;;;;;1.10;0.80;;;;;5.60;102966.00;;;;5087209;28;20674;-75
2021/04/13 04:37:28;;;;;;;1.15;0.82;;;;;5.60;102976.00;;;;5087648;28;20193;-75
2021/04/13 04:40:13;;;;;;;3.05;1.05;;;;;5.50;102977.00;;;;5085873;28;20197;-76
2021/04/13 04:42:48;;;;;;;1.80;0.93;;;;;5.60;102984.00;;;;5088198;28;20688;-76
2021/04/13 04:45:19;;;;;;;1.55;1.20;;;;;5.60;102981.00;;;;5085829;28;20194;-76
2021/04/13 04:47:49;;;;;;;2.90;0.82;;;;;5.60;102980.00;;;;5082966;28;20243;-76
2021/04/13 04:50:17;;;;;;;1.52;0.95;;;;;5.60;102982.00;;;;5085485;28;20229;-76
2021/04/13 04:52:46;;;;;;;2.58;0.63;;;;;5.60;102987.00;;;;5086416;28;20214;-76
2021/04/13 04:55:14;;;;;;;2.63;0.88;;;;;5.60;102985.00;;;;5076103;28;20560;-76
2021/04/13 04:57:42;;;;;;;1.92;0.85;;;;;5.60;102992.00;;;;5078226;28;20186;-77
2021/04/13 05:00:11;;;;;;;2.00;0.90;;;;;5.60;102988.00;;;;5070121;28;20210;-76
2021/04/13 05:02:38;;;;;;;2.65;1.20;;;;;5.60;102993.00;;;;5085609;28;20217;-75
2021/04/13 05:05:06;;;;;;;1.50;1.00;;;;;5.60;102993.00;;;;5077216;28;20267;-75
2021/04/13 05:07:33;;;;;;;1.60;0.88;;;;;5.60;102993.00;;;;5085746;28;20190;-75
2021/04/13 05:10:00;;;;;;;2.08;1.05;;;;;5.60;102996.00;;;;5069057;28;20707;-75
2021/04/13 05:12:26;;;;;;;2.22;1.20;;;;;5.60;102994.00;;;;5083065;28;20626;-75
2021/04/13 05:14:53;;;;;;;1.77;0.77;;;;;5.70;103000.00;;;;5080662;28;20600;-75
2021/04/13 05:17:20;;;;;;;2.55;1.02;;;;;5.70;103003.00;;;;5084545;28;20198;-76
2021/04/13 05:19:48;;;;;;;3.28;0.88;;;;;5.70;102997.00;;;;5079667;28;20203;-76
2021/04/13 05:22:14;;;;;;;1.58;1.02;;;;;5.70;102999.00;;;;5086498;28;20229;-76
2021/04/13 05:24:42;;;;;;;0.95;0.70;;;;;5.70;103003.00;;;;5082713;28;20199;-76
2021/04/13 05:27:10;;;;;;;1.50;0.80;;;;;5.80;103015.00;;;;5086673;28;20194;-76
2021/04/13 05:29:37;;;;;;;4.25;1.25;;;;;5.80;103002.00;;;;5089469;28;20191;-77
2021/04/13 05:32:04;;;;;;;2.65;1.27;;;;;5.80;103005.00;;;;5091535;28;20190;-77
2021/04/13 05:34:30;;;;;;;1.27;0.82;;;;;5.90;102998.00;;;;5089546;28;20212;-77
2021/04/13 05:36:58;;;;;;;1.90;1.00;;;;;5.90;103014.00;;;;5090717;28;20202;-77
2021/04/13 05:39:25;;;;;;;4.45;1.40;;;;;6.00;103014.00;;;;5091381;28;20202;-77
2021/04/13 05:41:56;;;;;;;1.98;1.20;;;;;6.00;103012.00;;;;5089882;28;20268;-78
2021/04/13 05:44:23;;;;;;;2.35;1.38;;;;;6.00;103018.00;;;;5092029;28;20201;-77
2021/04/13 05:46:51;;;;;;;1.42;0.98;;;;;6.10;103021.00;;;;5090748;28;20236;-78
2021/04/13 05:49:17;;;;;;;3.53;1.10;;;;;6.10;103020.00;;;;5078884;28;20234;-78
2021/04/13 05:51:44;;;;;;;5.10;1.20;;;;;6.20;103023.00;;;;5090248;28;20206;-77
2021/04/13 05:54:12;;;;;;;4.43;0.88;;;;;6.20;103027.00;;;;5090829;28;20590;-78
2021/04/13 05:56:41;;;;;;;2.03;1.10;;;;;6.30;103033.00;;;;5089972;28;20543;-76
2021/04/13 05:59:12;;;;;;;1.92;0.95;;;;;6.40;103035.00;;;;5088713;28;20194;-76
2021/04/13 06:01:40;;;;;;;2.88;1.30;;;;;6.40;103044.00;;;;5089784;28;20217;-79
2021/04/13 06:04:11;;;;;;;2.28;1.20;;;;;6.50;103047.00;;;;5088610;28;20732;-77
2021/04/13 06:06:37;;;;;;;2.88;1.10;;;;;6.60;103051.00;;;;5089631;28;20668;-76
2021/04/13 06:09:05;;;;;;;5.22;1.23;;;;;6.70;103052.00;;;;5090984;28;20202;-75
2021/04/13 06:11:33;;;;;;;1.80;1.30;;;;;6.70;103053.00;;;;5090317;28;20202;-75
2021/04/13 06:14:01;;;;;;;1.70;1.20;;;;;6.80;103050.00;;;;5091038;28;20247;-75
2021/04/13 06:16:33;;;;;;;3.03;1.77;;;;;6.90;103065.00;;;;5081940;28;20212;-75
2021/04/13 06:19:00;;;;;;;1.85;1.30;;;;;7.00;103061.00;;;;5071436;28;20198;-75
2021/04/13 06:21:27;;;;;;;2.20;1.40;;;;;7.00;103072.00;;;;5070368;28;20299;-75
2021/04/13 06:23:54;;;;;;;3.47;1.50;;;;;7.10;103073.00;;;;5069761;28;20195;-75
2021/04/13 06:26:21;;;;;;;3.80;1.35;;;;;7.20;103066.00;;;;5069464;28;20241;-75
2021/04/13 06:28:49;;;;;;;2.42;1.23;;;;;7.30;103082.00;;;;5070303;28;20199;-75
2021/04/13 06:31:15;;;;;;;2.65;1.50;;;;;7.40;103087.00;;;;5069923;28;20191;-75
2021/04/13 06:33:42;;;;;;;2.28;1.23;;;;;7.50;103077.00;;;;5081009;28;20664;-75
2021/04/13 06:36:09;;;;;;;4.32;1.27;;;;;7.60;103088.00;;;;5090183;28;20210;-75
2021/04/13 06:38:38;;;;;;;3.67;1.20;;;;;7.70;103090.00;;;;5089418;28;20252;-76
2021/04/13 06:41:32;;;;;;;3.17;1.00;;;;;7.80;103096.00;;;;5090381;28;20214;-75
2021/04/13 06:44:32;;;;;;;7.20;1.50;;;;;8.00;103099.00;;;;5089842;28;20228;-76
2021/04/13 06:47:07;;;;;;;1.48;1.00;;;;;8.20;103095.00;;;;5089609;28;20202;-76
2021/04/13 06:50:03;;;;;;;1.63;0.93;;;;;8.30;103103.00;;;;5089878;28;20225;-76
2021/04/13 06:52:42;;;;;;;1.90;0.70;;;;;8.40;103097.00;;;;5090118;28;20289;-76
2021/04/13 06:55:16;;;;;;;3.90;1.20;;;;;8.50;103113.00;;;;5070955;28;20263;-76
2021/04/13 06:57:57;;;;;;;2.70;0.77;;;;;8.70;103106.00;;;;5070273;28;20210;-76
2021/04/13 07:00:42;;;;;;;3.78;1.05;;;;;8.70;103100.00;;;;5072243;28;20198;-76
2021/04/13 07:03:23;;;;;;;3.08;0.73;;;;;8.80;103113.00;;;;5089670;28;20218;-76
2021/04/13 07:05:55;;;;;;;1.92;0.88;;;;;9.00;103105.00;;;;5089882;28;20225;-76
2021/04/13 07:08:30;;;;;;;4.35;1.00;;;;;9.10;103121.00;;;;5089815;28;20243;-76
2021/04/13 07:11:03;;;;;;;2.85;0.85;;;;;9.20;103124.00;;;;5086968;28;20228;-76
2021/04/13 07:13:38;;;;;;;1.70;0.70;;;;;9.40;103120.00;;;;5089328;28;20247;-76
2021/04/13 07:16:15;;;;;;;1.33;0.80;;;;;9.60;103125.00;;;;5089729;28;20200;-76
2021/04/13 07:18:47;;;;;;;4.30;1.20;;;;;9.80;103128.00;;;;5089679;28;20187;-76
2021/04/13 07:21:21;;;;;;;3.45;0.65;;;;;9.90;103132.00;;;;5090102;28;20275;-76
2021/04/13 07:23:52;;;;;;;1.67;0.90;;;;;10.00;103131.00;;;;5089545;28;20210;-76
2021/04/13 07:26:24;;;;;;;2.25;0.75;;;;;10.20;103131.00;;;;5087821;28;20194;-76
2021/04/13 07:28:55;;;;;;;2.55;0.77;;;;;10.30;103131.00;;;;5077753;28;20195;-76
2021/04/13 07:31:36;;;;;;;2.85;0.90;;;;;10.40;103131.00;;;;5069631;28;20215;-76
2021/04/13 07:34:03;;;;;;;2.17;0.90;;;;;10.50;103134.00;;;;5069831;28;20203;-76
2021/04/13 07:36:36;;;;;;;1.50;0.70;;;;;10.60;103127.00;;;;5069290;28;20206;-76
2021/04/13 07:39:04;;;;;;;2.90;0.65;;;;;10.70;103132.00;;;;5069496;28;20730;-76
2021/04/13 07:41:37;;;;;;;1.52;0.50;;;;;10.80;103141.00;;;;5078612;28;20682;-76
2021/04/13 07:44:10;;;;;;;4.10;0.80;;;;;10.90;103136.00;;;;5089724;28;20571;-76
2021/04/13 07:46:58;;;;;;;0.90;0.73;;;;;11.00;103135.00;;;;5088823;28;20190;-77
2021/04/13 07:49:32;;;;;;;1.48;0.47;;;;;11.10;103143.00;;;;5088920;28;20321;-78
2021/04/13 07:52:11;;;;;;;1.90;0.63;;;;;11.20;103142.00;;;;5087369;28;20687;-77
2021/04/13 07:54:52;;;;;;;1.52;0.88;;;;;11.30;103135.00;;;;5083938;28;20276;-77
2021/04/13 07:57:28;;;;;;;7.35;0.90;;;;;11.40;103145.00;;;;5087826;28;20668;-77
2021/04/13 08:00:06;;;;;;;7.93;0.63;;;;;11.50;103139.00;;;;5088219;28;20240;-77
2021/04/13 08:02:34;;;;;;;2.35;0.50;;;;;11.70;103136.00;;;;5087975;28;20218;-77
2021/04/13 08:05:03;;;;;;;1.55;0.50;;;;;11.80;103143.00;;;;5088681;28;20249;-77
2021/04/13 08:07:33;;;;;;;2.03;0.50;;;;;12.00;103146.00;;;;5087991;28;20218;-77
2021/04/13 08:10:14;;;;;;;2.25;0.60;;;;;12.10;103144.00;;;;5088463;28;20195;-77
2021/04/13 08:12:53;;;;;;;1.80;0.38;;;;;12.20;103142.00;;;;5087850;28;20672;-77
2021/04/13 08:15:39;;;;;;;1.30;0.55;;;;;12.40;103144.00;;;;5087760;28;20667;-78
2021/04/13 08:18:11;;;;;;;2.22;0.50;;;;;12.50;103142.00;;;;5087893;28;20194;-78
2021/04/13 08:20:41;;;;;;;1.08;0.70;;;;;12.60;103152.00;;;;5088359;28;20198;-78
2021/04/13 08:23:11;;;;;;;0.85;0.20;;;;;12.80;103137.00;;;;5088015;28;20271;-77
2021/04/13 08:25:42;;;;;;;4.25;0.70;;;;;12.90;103140.00;;;;5077565;28;20252;-77
2021/04/13 08:28:28;;;;;;;0.75;0.30;;;;;13.00;103137.00;;;;5067547;28;20206;-77
2021/04/13 08:34:18;;;;;;;2.13;0.28;;;;;13.30;103144.00;;;;5068015;28;20225;-78
2021/04/13 08:36:50;;;;;;;0.95;0.17;;;;;13.40;103146.00;;;;5068072;28;20668;-78
2021/04/13 08:39:27;;;;;;;0.50;0.17;;;;;13.40;103152.00;;;;5066968;28;20203;-77
2021/04/13 08:42:06;;;;;;;2.55;0.55;;;;;13.40;103142.00;;;;5067556;28;20222;-78
2021/04/13 08:44:37;;;;;;;2.38;0.38;;;;;13.50;103155.00;;;;5068345;28;20202;-78
2021/04/13 08:47:13;;;;;;;0.45;0.17;;;;;13.60;103144.00;;;;5067528;28;20206;-78
2021/04/13 08:49:47;;;;;;;0.82;0.30;;;;;13.70;103164.00;;;;5078260;28;20234;-78
2021/04/13 08:52:41;;;;;;;0.63;0.30;;;;;13.70;103156.00;;;;5087670;28;20198;-78
2021/04/13 08:55:12;;;;;;;0.95;0.20;;;;;13.80;103154.00;;;;5079558;28;20222;-78
2021/04/13 08:57:41;;;;;;;2.20;0.20;;;;;13.90;103155.00;;;;5080565;28;20206;-78
2021/04/13 09:00:35;;;;;;;2.80;0.60;;;;;13.90;103153.00;;;;5087553;28;20245;-78
2021/04/13 09:03:04;;;;;;;0.57;0.25;;;;;14.00;103156.00;;;;5089852;28;20234;-78
2021/04/13 09:05:35;;;;;;;1.33;0.28;;;;;14.00;103159.00;;;;5091010;28;20190;-78
2021/04/13 09:08:07;;;;;;;2.67;0.40;;;;;14.10;103161.00;;;;5091523;28;20230;-78
2021/04/13 09:10:39;;;;;;;2.13;0.40;;;;;14.10;103160.00;;;;5091274;28;20228;-78
2021/04/13 09:13:26;;;;;;;0.20;0.10;;;;;14.20;103159.00;;;;5091213;28;20206;-78
2021/04/13 09:16:09;;;;;;;0.55;0.30;;;;;14.30;103148.00;;;;5090596;28;20206;-79
2021/04/13 09:18:49;;;;;;;0.93;0.40;;;;;14.40;103148.00;;;;5090564;28;20194;-78
2021/04/13 09:21:32;;;;;;;3.35;0.52;;;;;14.50;103154.00;;;;5091409;28;20198;-78
2021/04/13 09:24:06;;;;;;;2.58;0.50;;;;;14.60;103153.00;;;;5090996;28;20571;-78
2021/04/13 09:26:42;;;;;;;1.70;0.55;;;;;14.60;103151.00;;;;5071025;28;20211;-78
2021/04/13 09:29:31;;;;;;;1.45;0.30;;;;;14.70;103156.00;;;;5070815;28;20206;-78
2021/04/13 09:31:58;;;;;;;0.55;0.35;;;;;14.70;103145.00;;;;5070570;28;20691;-79
2021/04/13 09:34:49;;;;;;;2.80;0.60;;;;;14.70;103151.00;;;;5070618;28;20203;-78
2021/04/13 09:37:23;;;;;;;0.80;0.40;;;;;14.90;103147.00;;;;5071395;28;20203;-78
2021/04/13 09:40:28;;;;;;;1.05;0.68;;;;;14.80;103140.00;;;;5074011;28;20208;-77
2021/04/13 09:43:17;;;;;;;0.85;0.50;;;;;14.80;103135.00;;;;5031100;28;20221;-78
2021/04/13 09:46:06;;;;;;;1.05;0.50;;;;;14.70;103138.00;;;;5091100;28;20198;-78
2021/04/13 09:49:18;;;;;;;3.50;0.20;;;;;14.70;103144.00;;;;5090648;28;20619;-78
2021/04/13 09:52:05;;;;;;;1.50;0.20;;;;;14.70;103140.00;;;;4988932;28;20206;-78
2021/04/13 09:54:37;;;;;;;1.95;0.45;;;;;14.80;103135.00;;;;5074846;28;20222;-79
2021/04/13 09:57:23;;;;;;;0.47;0.30;;;;;14.80;103142.00;;;;5075903;28;20201;-78
2021/04/13 10:00:15;;;;;;;2.50;0.47;;;;;14.90;103122.00;;;;5070134;28;20732;-78
2021/04/13 10:03:11;;;;;;;0.88;0.32;;;;;15.00;103128.00;;;;5071020;28;20218;-78
2021/04/13 10:05:41;;;;;;;2.47;0.70;;;;;15.20;103131.00;;;;5070709;28;20202;-78
2021/04/13 10:08:16;;;;;;;1.65;0.68;;;;;15.30;103143.00;;;;5070005;28;20199;-78
2021/04/13 10:10:49;;;;;;;0.30;0.20;;;;;15.30;103126.00;;;;5070912;28;20566;-78
2021/04/13 10:13:48;;;;;;;0.93;0.20;;;;;15.30;103122.00;;;;5070242;28;20585;-78
2021/04/13 10:16:27;;;;;;;0.55;0.30;;;;;15.40;103137.00;;;;5071011;28;20210;-78
2021/04/13 10:19:30;;;;;;;0.55;0.20;;;;;15.30;103130.00;;;;5070569;28;20216;-78
2021/04/13 10:22:22;;;;;;;1.00;0.20;;;;;15.30;103132.00;;;;5028580;28;20234;-78
2021/04/13 10:25:17;;;;;;;1.35;0.60;;;;;15.30;103120.00;;;;5054655;28;20316;-78
2021/04/13 10:28:23;;;;;;;1.60;0.30;;;;;15.40;103127.00;;;;5090206;28;20226;-78
2021/04/13 10:31:27;;;;;;;1.35;0.40;;;;;15.50;103125.00;;;;5089959;28;20216;-78
2021/04/13 10:34:17;;;;;;;1.73;0.55;;;;;15.50;103120.00;;;;5090091;28;20206;-78
2021/04/13 10:37:21;;;;;;;0.88;0.32;;;;;15.50;103115.00;;;;5090505;28;20202;-78
2021/04/13 10:40:08;;;;;;;1.23;0.40;;;;;15.60;103118.00;;;;5090593;28;20202;-78
2021/04/13 10:43:21;;;;;;;1.17;0.40;;;;;15.60;103113.00;;;;5088720;28;20226;-79
2021/04/13 10:46:06;;;;;;;1.77;0.50;;;;;15.70;103114.00;;;;5090546;28;20198;-77
2021/04/13 10:49:00;;;;;;;1.65;0.30;;;;;15.80;103104.00;;;;5090364;28;20202;-78
2021/04/13 10:52:05;;;;;;;0.55;0.30;;;;;15.90;103106.00;;;;5072780;28;20246;-78
2021/04/13 10:55:02;;;;;;;1.02;0.50;;;;;16.00;103098.00;;;;5064352;28;20214;-78
2021/04/13 10:58:08;;;;;;;1.35;0.30;;;;;16.10;103102.00;;;;5090019;28;20202;-78
2021/04/13 11:01:10;;;;;;;0.70;0.40;;;;;16.20;103107.00;;;;5090100;28;20260;-78
2021/04/13 11:04:38;;;;;;;0.55;0.30;;;;;16.30;103110.00;;;;5089835;28;20231;-77
2021/04/13 11:07:34;;;;;;;1.88;0.30;;;;;16.30;103104.00;;;;5089577;28;20617;-78
2021/04/13 11:10:16;;;;;;;0.60;0.30;;;;;16.30;103109.00;;;;5087131;28;20247;-78
2021/04/13 11:13:15;;;;;;;2.25;0.40;;;;;16.30;103111.00;;;;5089005;28;20320;-78
2021/04/13 11:16:06;;;;;;;1.08;0.38;;;;;16.50;103099.00;;;;5089790;28;20240;-78
2021/04/13 11:19:11;;;;;;;0.82;0.30;;;;;16.60;103097.00;;;;5089440;28;20202;-78
2021/04/13 11:22:29;;;;;;;1.13;0.43;;;;;16.60;103108.00;;;;5088386;28;20317;-78
2021/04/13 11:25:36;;;;;;;1.23;0.30;;;;;16.60;103098.00;;;;5089412;28;20202;-78
2021/04/13 11:28:43;;;;;;;1.08;0.25;;;;;16.70;103089.00;;;;5066295;28;20202;-79
2021/04/13 11:31:48;;;;;;;0.80;0.40;;;;;16.90;103083.00;;;;5089792;28;20667;-78
2021/04/13 11:34:42;;;;;;;1.63;0.50;;;;;17.10;103083.00;;;;5041188;28;20210;-78
2021/04/13 11:37:25;;;;;;;0.60;0.40;;;;;17.20;103082.00;;;;5088773;28;20202;-78
2021/04/13 11:40:09;;;;;;;1.83;0.43;;;;;17.20;103089.00;;;;5089545;28;20213;-78
2021/04/13 11:42:40;;;;;;;0.93;0.47;;;;;17.20;103085.00;;;;5073242;28;20230;-78
2021/04/13 11:45:22;;;;;;;1.10;0.50;;;;;17.10;103086.00;;;;5069268;28;20207;-78
2021/04/13 11:47:58;;;;;;;1.05;0.30;;;;;17.20;103081.00;;;;5070796;28;20202;-78
2021/04/13 11:50:31;;;;;;;0.40;0.20;;;;;17.20;103088.00;;;;5070029;28;20516;-78
2021/04/13 11:53:05;;;;;;;1.27;0.32;;;;;17.20;103085.00;;;;5068908;28;20202;-78
2021/04/13 11:55:39;;;;;;;0.98;0.30;;;;;17.10;103090.00;;;;5079954;28;20214;-78
2021/04/13 11:58:12;;;;;;;0.43;0.32;;;;;17.20;103085.00;;;;5089795;28;20253;-78
2021/04/13 12:00:40;;;;;;;1.63;0.40;;;;;17.10;103093.00;;;;5090772;28;20194;-78
2021/04/13 12:03:30;;;;;;;0.70;0.32;;;;;17.00;103094.00;;;;5091538;28;20229;-78
2021/04/13 12:05:58;;;;;;;0.50;0.22;;;;;17.00;103098.00;;;;5094931;28;20190;-79
2021/04/13 12:08:53;;;;;;;1.25;0.57;;;;;16.80;103100.00;;;;5090504;28;20206;-78
2021/04/13 12:11:47;;;;;;;0.75;0.20;;;;;16.80;103095.00;;;;5090861;28;21079;-78
2021/04/13 12:14:43;;;;;;;0.80;0.52;;;;;16.80;103088.00;;;;5091039;28;20198;-78
2021/04/13 12:17:38;;;;;;;0.60;0.30;;;;;16.80;103082.00;;;;5091796;28;20247;-78
2021/04/13 12:20:40;;;;;;;3.45;0.60;;;;;16.80;103085.00;;;;5091816;28;20664;-78
2021/04/13 12:23:46;;;;;;;0.98;0.68;;;;;16.70;103088.00;;;;5090328;28;20228;-78
2021/04/13 12:26:27;;;;;;;0.57;0.20;;;;;16.80;103089.00;;;;5089480;28;20202;-78
2021/04/13 12:28:54;;;;;;;1.30;0.30;;;;;16.90;103085.00;;;;5089640;28;20202;-77
2021/04/13 12:31:24;;;;;;;0.60;0.20;;;;;16.90;103087.00;;;;5088929;28;20252;-78
2021/04/13 12:34:04;;;;;;;1.88;0.82;;;;;17.00;103083.00;;;;5088181;28;20198;-78
2021/04/13 12:36:53;;;;;;;0.85;0.40;;;;;17.00;103096.00;;;;5088526;28;20190;-78
2021/04/13 12:39:48;;;;;;;1.25;0.30;;;;;17.10;103104.00;;;;5093616;28;20202;-77
2021/04/13 12:42:49;;;;;;;2.13;0.52;;;;;17.00;103099.00;;;;5092386;28;20226;-78
2021/04/13 12:45:39;;;;;;;1.13;0.52;;;;;17.00;103110.00;;;;5093202;28;20190;-78
2021/04/13 12:48:17;;;;;;;1.92;0.50;;;;;16.90;103104.00;;;;5092038;28;20220;-78
2021/04/13 12:50:46;;;;;;;0.35;0.20;;;;;16.90;103104.00;;;;5096892;28;20226;-78
2021/04/13 12:53:15;;;;;;;0.40;0.20;;;;;16.90;103101.00;;;;5094884;28;20202;-78
2021/04/13 12:55:43;;;;;;;0.82;0.22;;;;;16.90;103097.00;;;;5094380;28;20214;-78
2021/04/13 12:58:13;;;;;;;0.17;0.13;;;;;16.90;103087.00;;;;5094575;28;20600;-78
2021/04/13 13:00:44;;;;;;;0.70;0.25;;;;;16.90;103096.00;;;;5094549;28;20582;-78
2021/04/13 13:03:17;;;;;;;1.08;0.30;;;;;16.90;103093.00;;;;5093399;28;20679;-77